Time;durP1;ratioP1;P1;durP2;ratioP2;P2;SDS_P1;SDS_P2;PMS_P1;PMS_P2;Temp;Humidity;BMP_temperature;BMP_pressure;BME280_temperature;BME280_humidity;BME280_pressure;Samples;Min_cycle;Max_cycle;Signal;HPM_P1;HPM_P2
2023/04/13 00:00:43;;;;;;;21.47;10.47;;;8.50;99.90;;;;;;5095065;28;20210;-88
2023/04/13 00:03:11;;;;;;;19.97;9.67;;;8.80;99.90;;;;;;5060161;28;20696;-88
2023/04/13 00:05:44;;;;;;;17.10;8.63;;;8.50;99.90;;;;;;5077709;28;20178;-88
2023/04/13 00:08:11;;;;;;;20.00;7.73;;;;;;;;;;5061705;28;20340;-88
2023/04/13 00:10:40;;;;;;;19.63;8.97;;;;;;;;;;5079231;28;20521;-88
2023/04/13 00:13:07;;;;;;;18.10;8.90;;;8.40;99.90;;;;;;5080220;28;20174;-88
2023/04/13 00:15:36;;;;;;;21.70;9.13;;;8.60;99.90;;;;;;5096402;28;20175;-88
2023/04/13 00:18:05;;;;;;;18.03;8.83;;;8.50;99.90;;;;;;5095757;28;20195;-89
2023/04/13 00:20:34;;;;;;;19.67;7.43;;;8.40;99.90;;;;;;5079224;28;20217;-87
2023/04/13 00:23:00;;;;;;;15.40;7.73;;;;;;;;;;5077373;28;20631;-87
2023/04/13 00:25:26;;;;;;;14.67;8.20;;;;;;;;;;5062869;28;20186;-86
2023/04/13 00:27:52;;;;;;;20.30;8.87;;;;;;;;;;5061383;28;20182;-87
2023/04/13 00:30:20;;;;;;;18.73;8.70;;;7.90;99.90;;;;;;5077977;28;20641;-87
2023/04/13 00:32:46;;;;;;;19.00;9.43;;;7.90;99.90;;;;;;5078512;28;20237;-86
2023/04/13 00:35:17;;;;;;;19.37;9.73;;;8.10;99.90;;;;;;5078638;28;20505;-87
2023/04/13 00:37:45;;;;;;;17.33;9.07;;;7.80;99.90;;;;;;5077220;28;20182;-88
2023/04/13 00:40:16;;;;;;;17.40;8.33;;;8.00;99.90;;;;;;5096834;28;20212;-86
2023/04/13 00:42:47;;;;;;;17.87;9.73;;;7.80;99.90;;;;;;5101702;28;20197;-86
2023/04/13 00:45:13;;;;;;;24.97;9.63;;;;;;;;;;5101708;28;20174;-86
2023/04/13 00:47:40;;;;;;;18.77;8.83;;;7.70;99.90;;;;;;5101693;28;20201;-87
2023/04/13 00:50:09;;;;;;;17.97;8.90;;;7.60;99.90;;;;;;5100695;28;20167;-88
2023/04/13 00:52:38;;;;;;;22.37;9.67;;;;;;;;;;5085689;28;20161;-87
2023/04/13 00:55:05;;;;;;;20.50;9.47;;;9.10;99.90;;;;;;5100961;28;20238;-87
2023/04/13 00:57:32;;;;;;;19.67;10.67;;;7.50;99.90;;;;;;5101425;28;20159;-87
2023/04/13 01:00:08;;;;;;;14.03;8.07;;;7.50;99.90;;;;;;5100979;28;20220;-89
2023/04/13 01:02:35;;;;;;;16.97;8.33;;;7.40;99.90;;;;;;5101093;28;20175;-87
2023/04/13 01:05:02;;;;;;;17.20;8.33;;;7.30;99.90;;;;;;5099939;28;20187;-89
2023/04/13 01:07:59;;;;;;;19.80;8.97;;;7.40;99.90;;;;;;5101229;28;20188;-87
2023/04/13 01:10:44;;;;;;;22.33;9.33;;;7.40;99.90;;;;;;5101009;28;20178;-88
2023/04/13 01:13:30;;;;;;;15.67;8.70;;;7.30;99.90;;;;;;5101042;28;20155;-88
2023/04/13 01:16:07;;;;;;;18.47;9.13;;;7.40;99.90;;;;;;5077527;28;20591;-87
2023/04/13 01:18:36;;;;;;;19.70;9.23;;;7.20;99.90;;;;;;5076983;28;20178;-87
2023/04/13 01:21:03;;;;;;;16.80;8.43;;;7.40;99.90;;;;;;5076475;28;20233;-88
2023/04/13 01:23:36;;;;;;;26.50;10.57;;;7.10;99.90;;;;;;5077203;28;20277;-87
2023/04/13 01:26:05;;;;;;;24.80;9.83;;;7.20;99.90;;;;;;5076462;28;20182;-88
2023/04/13 01:28:32;;;;;;;22.33;8.57;;;7.00;99.90;;;;;;5077102;28;20179;-87
2023/04/13 01:31:04;;;;;;;17.30;8.60;;;;;;;;;;5076324;28;20190;-88
2023/04/13 01:33:32;;;;;;;18.80;9.30;;;7.00;99.90;;;;;;5077113;28;20320;-87
2023/04/13 01:36:02;;;;;;;22.20;9.80;;;6.90;99.90;;;;;;5076683;28;20202;-86
2023/04/13 01:38:31;;;;;;;23.73;10.30;;;6.90;99.90;;;;;;5076904;28;20692;-86
2023/04/13 01:41:01;;;;;;;19.43;9.37;;;;;;;;;;5076270;28;20763;-87
2023/04/13 01:43:27;;;;;;;18.53;9.43;;;;;;;;;;5075326;28;20686;-87
2023/04/13 01:45:53;;;;;;;16.53;9.07;;;;;;;;;;5075383;28;20182;-87
2023/04/13 01:48:33;;;;;;;21.43;10.10;;;6.80;99.90;;;;;;5075089;28;20182;-88
2023/04/13 01:51:17;;;;;;;15.03;8.90;;;6.80;99.90;;;;;;5075376;28;20694;-87
2023/04/13 01:54:00;;;;;;;21.77;9.50;;;7.10;99.90;;;;;;5075682;28;20235;-87
2023/04/13 01:56:32;;;;;;;17.30;10.03;;;6.70;99.90;;;;;;5075070;28;20635;-87
2023/04/13 01:59:00;;;;;;;21.53;9.10;;;6.70;99.90;;;;;;5075149;28;20178;-87
2023/04/13 02:01:27;;;;;;;19.37;10.57;;;;;;;;;;5074746;28;20206;-87
2023/04/13 02:03:53;;;;;;;19.10;9.53;;;;;;;;;;5074812;28;20185;-88
2023/04/13 02:06:19;;;;;;;20.80;10.43;;;;;;;;;;5074709;28;20175;-87
2023/04/13 02:08:45;;;;;;;22.00;10.03;;;6.60;99.90;;;;;;5075065;28;20729;-88
2023/04/13 02:11:12;;;;;;;22.93;10.27;;;;;;;;;;5074767;28;20197;-87
2023/04/13 02:13:38;;;;;;;22.47;11.07;;;;;;;;;;5075242;28;20236;-87
2023/04/13 02:16:07;;;;;;;20.40;9.53;;;6.50;99.90;;;;;;5075099;28;20275;-87
2023/04/13 02:18:34;;;;;;;20.93;10.57;;;;;;;;;;5058510;28;20232;-86
2023/04/13 02:21:10;;;;;;;20.57;10.47;;;6.30;99.90;;;;;;5074962;28;20236;-86
2023/04/13 02:23:39;;;;;;;21.03;9.67;;;6.30;99.90;;;;;;5059385;28;20557;-86
2023/04/13 02:26:12;;;;;;;19.43;8.67;;;6.30;99.90;;;;;;5074846;28;20171;-87
2023/04/13 02:28:39;;;;;;;23.83;10.80;;;;;;;;;;5074743;28;20220;-86
2023/04/13 02:31:05;;;;;;;15.07;8.50;;;;;;;;;;5074974;28;20186;-87
2023/04/13 02:33:34;;;;;;;20.00;8.83;;;6.30;99.90;;;;;;5074551;28;20191;-87
2023/04/13 02:36:01;;;;;;;23.13;10.13;;;6.50;99.90;;;;;;5074914;28;20232;-88
2023/04/13 02:38:27;;;;;;;20.33;9.90;;;;;;;;;;5074091;28;20610;-88
2023/04/13 02:40:55;;;;;;;23.13;9.27;;;6.20;99.90;;;;;;5074570;28;20224;-88
2023/04/13 02:43:21;;;;;;;20.40;8.70;;;;;;;;;;5074393;28;20285;-88
2023/04/13 02:45:48;;;;;;;19.90;9.77;;;6.10;99.90;;;;;;5074708;28;20208;-88
2023/04/13 02:48:14;;;;;;;18.20;9.40;;;;;;;;;;5057802;28;20179;-89
2023/04/13 02:50:40;;;;;;;20.47;8.60;;;;;;;;;;5074749;28;20182;-87
2023/04/13 02:53:06;;;;;;;26.87;11.43;;;;;;;;;;5075432;28;20634;-88
2023/04/13 02:55:32;;;;;;;18.47;8.73;;;;;;;;;;5077986;28;20189;-88
2023/04/13 02:57:59;;;;;;;17.83;9.10;;;;;;;;;;5078112;28;20179;-89
2023/04/13 03:00:25;;;;;;;19.20;9.83;;;6.10;99.90;;;;;;5077677;28;20210;-87
2023/04/13 03:02:52;;;;;;;23.40;9.77;;;;;;;;;;5078181;28;20178;-88
2023/04/13 03:05:18;;;;;;;23.57;9.90;;;;;;;;;;5077733;28;20190;-89
2023/04/13 03:07:45;;;;;;;27.97;10.17;;;;;;;;;;5078374;28;20210;-88
2023/04/13 03:10:11;;;;;;;20.07;10.97;;;;;;;;;;5077946;28;20190;-89
2023/04/13 03:12:37;;;;;;;21.43;8.70;;;;;;;;;;5077747;28;20214;-88
2023/04/13 03:15:06;;;;;;;19.80;9.07;;;6.00;99.90;;;;;;5077850;28;20269;-89
2023/04/13 03:17:32;;;;;;;18.20;9.43;;;6.00;99.90;;;;;;5077781;28;20269;-89
2023/04/13 03:19:58;;;;;;;18.37;9.50;;;6.50;99.90;;;;;;5078080;28;20210;-89
2023/04/13 03:22:29;;;;;;;20.20;9.67;;;;;;;;;;5061982;28;20182;-90
2023/04/13 03:24:55;;;;;;;21.57;11.10;;;;;;;;;;5077873;28;20185;-89
2023/04/13 03:27:22;;;;;;;20.43;9.57;;;;;;;;;;5060994;28;20197;-88
2023/04/13 03:29:49;;;;;;;22.20;9.33;;;5.90;99.90;;;;;;5078379;28;20182;-88
2023/04/13 03:32:15;;;;;;;23.93;8.73;;;5.90;99.90;;;;;;5040751;28;20238;-88
2023/04/13 03:34:42;;;;;;;23.30;11.00;;;;;;;;;;5040709;28;20548;-89
2023/04/13 03:37:09;;;;;;;17.10;9.40;;;;;;;;;;5057502;28;20620;-90
2023/04/13 03:39:36;;;;;;;21.33;11.13;;;6.20;99.90;;;;;;5057324;28;20172;-89
2023/04/13 03:42:02;;;;;;;23.93;10.63;;;;;;;;;;5057663;28;20181;-91
2023/04/13 03:44:28;;;;;;;25.63;10.80;;;5.60;99.90;;;;;;5057725;28;20228;-91
2023/04/13 03:46:55;;;;;;;19.20;9.73;;;5.80;99.90;;;;;;5041687;28;20206;-90
2023/04/13 03:49:21;;;;;;;20.20;10.07;;;;;;;;;;5065654;28;20628;-91
2023/04/13 03:51:49;;;;;;;22.57;10.80;;;5.60;99.90;;;;;;5077618;28;20171;-90
2023/04/13 03:54:15;;;;;;;18.10;9.23;;;;;;;;;;5096526;28;20171;-91
2023/04/13 03:56:41;;;;;;;21.23;11.43;;;5.70;99.90;;;;;;5068763;28;20636;-91
2023/04/13 03:59:07;;;;;;;28.87;12.40;;;;;;;;;;5058592;28;20186;-91
2023/04/13 04:01:33;;;;;;;23.93;10.83;;;;;;;;;;5057467;28;20382;-91
2023/04/13 04:04:00;;;;;;;23.87;10.67;;;;;;;;;;5060279;28;20658;-91
2023/04/13 04:06:26;;;;;;;22.47;9.63;;;;;;;;;;5057880;28;20179;-91
2023/04/13 04:08:52;;;;;;;26.77;10.67;;;5.90;99.90;;;;;;5039072;28;20184;-91
2023/04/13 04:11:18;;;;;;;47.37;20.93;;;;;;;;;;5037714;28;20194;-92
2023/04/13 04:13:44;;;;;;;25.90;12.50;;;;;;;;;;5044610;28;20209;-90
2023/04/13 04:16:11;;;;;;;29.47;12.67;;;;;;;;;;5070542;28;20213;-92
2023/04/13 04:18:37;;;;;;;24.33;11.53;;;;;;;;;;5074932;28;20170;-91
2023/04/13 04:21:05;;;;;;;26.43;11.57;;;;;;;;;;5056275;28;20215;-89
2023/04/13 04:23:33;;;;;;;22.00;10.20;;;;;;;;;;5071624;28;20201;-92
2023/04/13 04:26:01;;;;;;;29.37;11.20;;;;;;;;;;5071460;28;20242;-92
2023/04/13 04:28:29;;;;;;;18.53;10.00;;;;;;;;;;5073034;28;20175;-91
2023/04/13 04:31:03;;;;;;;28.47;14.30;;;5.90;99.90;;;;;;5056094;28;20187;-91
2023/04/13 04:33:30;;;;;;;20.20;10.07;;;;;;;;;;5082391;28;20215;-91
2023/04/13 04:35:56;;;;;;;17.67;10.23;;;;;;;;;;5079771;28;20579;-90
2023/04/13 04:38:22;;;;;;;22.00;9.77;;;;;;;;;;5063385;28;20193;-91
2023/04/13 04:40:49;;;;;;;22.93;10.63;;;6.00;99.90;;;;;;5084831;28;20214;-91
2023/04/13 04:43:17;;;;;;;24.20;10.20;;;6.00;99.90;;;;;;5075076;28;20244;-91
2023/04/13 04:45:45;;;;;;;19.37;10.90;;;6.00;99.90;;;;;;5065194;28;20647;-91
2023/04/13 04:48:14;;;;;;;29.23;10.87;;;6.00;99.90;;;;;;5071666;28;20558;-91
2023/04/13 04:50:44;;;;;;;23.33;10.13;;;;;;;;;;5074996;28;20192;-91
2023/04/13 04:53:11;;;;;;;22.97;9.60;;;6.30;99.90;;;;;;5068022;28;20197;-91
2023/04/13 04:55:37;;;;;;;16.53;8.67;;;;;;;;;;5071169;28;20182;-88
2023/04/13 04:58:20;;;;;;;23.10;11.83;;;6.20;99.90;;;;;;5064651;28;20187;-89
2023/04/13 05:00:46;;;;;;;21.43;10.60;;;;;;;;;;5069133;28;20215;-90
2023/04/13 05:03:12;;;;;;;21.27;10.67;;;;;;;;;;5069930;28;20193;-90
2023/04/13 05:05:38;;;;;;;20.43;10.40;;;;;;;;;;5061632;28;20179;-89
2023/04/13 05:08:04;;;;;;;19.43;9.03;;;6.20;99.90;;;;;;5060439;28;20211;-88
2023/04/13 05:10:33;;;;;;;21.20;10.37;;;6.40;99.90;;;;;;5066618;28;20178;-88
2023/04/13 05:13:10;;;;;;;19.13;9.97;;;6.40;99.90;;;;;;5067921;28;20666;-89
2023/04/13 05:15:36;;;;;;;22.80;10.00;;;;;;;;;;5052318;28;20305;-90
2023/04/13 05:18:05;;;;;;;15.70;8.50;;;;;;;;;;5068446;28;20187;-90
2023/04/13 05:20:34;;;;;;;31.27;12.57;;;6.70;99.90;;;;;;5067068;28;20230;-90
2023/04/13 05:23:00;;;;;;;21.77;10.10;;;;;;;;;;5075514;28;20205;-89
2023/04/13 05:25:38;;;;;;;23.67;10.63;;;6.90;99.90;;;;;;5082267;28;20190;-90
2023/04/13 05:28:04;;;;;;;28.47;11.37;;;;;;;;;;5076789;28;20178;-89
2023/04/13 05:30:31;;;;;;;22.07;11.13;;;;;;;;;;5081559;28;20183;-89
2023/04/13 05:33:05;;;;;;;24.40;10.50;;;7.20;99.90;;;;;;5071217;28;20280;-88
2023/04/13 05:35:38;;;;;;;33.10;12.83;;;7.20;99.90;;;;;;5081194;28;20163;-88
2023/04/13 05:38:06;;;;;;;25.70;11.23;;;7.40;99.90;;;;;;5077404;28;20277;-88
2023/04/13 05:40:35;;;;;;;30.53;12.50;;;;;;;;;;5100978;28;20275;-88
2023/04/13 05:43:33;;;;;;;26.90;12.10;;;7.50;99.90;;;;;;5066899;28;20240;-87
2023/04/13 05:46:08;;;;;;;26.83;12.27;;;8.30;99.90;;;;;;5062438;28;20199;-87
2023/04/13 05:48:36;;;;;;;19.87;11.30;;;;;;;;;;5082986;28;20186;-88
2023/04/13 05:51:01;;;;;;;20.97;11.93;;;7.80;99.90;;;;;;5068724;28;20193;-86
2023/04/13 05:53:37;;;;;;;29.27;11.43;;;7.90;99.90;;;;;;5076051;28;20547;-89
2023/04/13 05:56:11;;;;;;;23.40;11.93;;;8.10;99.90;;;;;;5053492;28;20239;-88
2023/04/13 05:58:38;;;;;;;31.20;11.97;;;8.00;99.90;;;;;;5064611;28;20252;-85
2023/04/13 06:01:06;;;;;;;24.83;13.13;;;;;;;;;;5063014;28;20211;-88
2023/04/13 06:03:33;;;;;;;27.37;11.57;;;8.10;99.90;;;;;;5052720;28;20225;-87
2023/04/13 06:06:00;;;;;;;24.50;12.53;;;;;;;;;;5053453;28;20198;-92
2023/04/13 06:08:31;;;;;;;31.07;13.17;;;;;;;;;;5072968;28;20183;-88
2023/04/13 06:10:58;;;;;;;34.57;14.03;;;8.50;99.90;;;;;;5069816;28;20251;-88
2023/04/13 06:13:30;;;;;;;30.03;12.53;;;8.70;99.90;;;;;;5067006;28;20183;-88
2023/04/13 06:16:00;;;;;;;29.87;12.77;;;7.30;99.90;;;;;;5088638;28;20631;-87
2023/04/13 06:18:28;;;;;;;24.37;11.77;;;;;;;;;;5067323;28;20179;-87
2023/04/13 06:21:07;;;;;;;30.97;13.57;;;8.90;99.90;;;;;;5083924;28;20338;-87
2023/04/13 06:23:45;;;;;;;23.50;10.70;;;8.50;99.90;;;;;;5099149;28;20179;-88
2023/04/13 06:26:11;;;;;;;27.43;12.57;;;9.10;99.90;;;;;;5061843;28;20240;-87
2023/04/13 06:28:37;;;;;;;25.40;11.53;;;10.30;99.90;;;;;;5066905;28;20183;-87
2023/04/13 06:31:02;;;;;;;30.33;11.27;;;9.30;99.90;;;;;;5078176;28;20785;-88
2023/04/13 06:33:28;;;;;;;29.80;11.80;;;9.30;99.90;;;;;;5061118;28;20298;-87
2023/04/13 06:35:54;;;;;;;29.83;13.23;;;9.30;99.90;;;;;;5077388;28;20274;-88
2023/04/13 06:38:22;;;;;;;32.20;13.90;;;9.40;99.90;;;;;;5091882;28;20210;-88
2023/04/13 06:40:47;;;;;;;26.47;12.57;;;9.20;99.90;;;;;;5090462;28;20222;-86
2023/04/13 06:43:15;;;;;;;32.37;13.43;;;9.40;99.90;;;;;;5057368;28;20215;-87
2023/04/13 06:45:41;;;;;;;33.43;14.27;;;9.80;99.90;;;;;;5082314;28;20198;-88
2023/04/13 06:48:07;;;;;;;24.20;10.70;;;10.00;99.90;;;;;;5089792;28;20170;-89
2023/04/13 06:50:39;;;;;;;32.63;12.10;;;9.90;99.90;;;;;;5099982;28;20199;-88
2023/04/13 06:53:06;;;;;;;26.75;10.32;;;10.00;99.90;;;;;;5109556;28;20175;-89
2023/04/13 06:55:32;;;;;;;26.27;11.85;;;10.10;99.90;;;;;;5095631;28;20183;-88
2023/04/13 06:57:58;;;;;;;23.58;11.65;;;10.30;99.90;;;;;;5071355;28;20172;-88
2023/04/13 07:00:23;;;;;;;25.33;12.73;;;10.50;99.90;;;;;;5090674;28;20206;-87
2023/04/13 07:02:50;;;;;;;26.55;10.23;;;;;;;;;;5088828;28;20171;-90
2023/04/13 07:05:18;;;;;;;28.65;11.13;;;10.50;99.90;;;;;;5079231;28;20188;-89
2023/04/13 07:07:44;;;;;;;25.83;10.75;;;10.50;99.90;;;;;;5088185;28;20331;-90
2023/04/13 07:10:11;;;;;;;25.30;11.70;;;10.80;99.90;;;;;;5083939;28;20235;-88
2023/04/13 07:12:37;;;;;;;32.95;11.57;;;10.80;99.90;;;;;;5066954;28;20178;-89
2023/04/13 07:15:03;;;;;;;23.15;11.15;;;11.10;99.90;;;;;;5065108;28;20185;-87
2023/04/13 07:17:31;;;;;;;15.98;9.25;;;10.80;99.90;;;;;;5065527;28;20205;-87
2023/04/13 07:19:57;;;;;;;20.58;9.65;;;10.80;99.90;;;;;;5065544;28;20213;-88
2023/04/13 07:22:23;;;;;;;21.63;9.77;;;10.80;99.90;;;;;;5081590;28;20182;-89
2023/04/13 07:24:49;;;;;;;17.70;8.35;;;10.70;99.90;;;;;;5064982;28;20178;-88
2023/04/13 07:27:16;;;;;;;24.20;8.98;;;10.80;99.90;;;;;;5048754;28;20179;-87
2023/04/13 07:29:41;;;;;;;17.40;9.38;;;10.80;99.90;;;;;;5081328;28;20193;-89
2023/04/13 07:32:07;;;;;;;18.67;8.55;;;11.00;99.90;;;;;;5081933;28;20231;-88
2023/04/13 07:34:35;;;;;;;19.52;8.80;;;10.90;99.90;;;;;;5081219;28;20179;-90
2023/04/13 07:37:00;;;;;;;15.07;7.60;;;10.90;99.90;;;;;;5080830;28;20190;-88
2023/04/13 07:39:27;;;;;;;19.27;8.63;;;11.30;99.90;;;;;;5064046;28;20235;-90
2023/04/13 07:41:52;;;;;;;23.05;11.73;;;8.90;99.90;;;;;;5079542;28;20663;-89
2023/04/13 07:44:18;;;;;;;20.77;9.98;;;11.10;99.90;;;;;;5080436;28;20181;-89
2023/04/13 07:46:44;;;;;;;21.67;9.43;;;11.30;99.90;;;;;;5098033;28;20170;-88
2023/04/13 07:49:19;;;;;;;21.65;11.52;;;11.20;99.90;;;;;;5098222;28;20616;-87
2023/04/13 07:51:44;;;;;;;22.25;10.57;;;11.20;99.90;;;;;;5080183;28;20177;-88
2023/04/13 07:54:10;;;;;;;21.02;9.50;;;11.00;99.90;;;;;;5062683;28;20178;-88
2023/04/13 07:56:36;;;;;;;16.77;8.30;;;10.90;99.90;;;;;;5079910;28;20170;-89
2023/04/13 07:59:02;;;;;;;17.00;8.65;;;8.60;99.90;;;;;;5078905;28;20642;-88
2023/04/13 08:01:28;;;;;;;18.50;9.30;;;10.90;99.90;;;;;;5080015;28;20194;-88
2023/04/13 08:03:54;;;;;;;19.17;9.35;;;11.00;99.90;;;;;;5097236;28;20179;-89
2023/04/13 08:06:21;;;;;;;18.50;8.60;;;11.10;99.90;;;;;;5079304;28;20182;-89
2023/04/13 08:08:46;;;;;;;15.80;8.15;;;11.40;99.90;;;;;;5046647;28;20639;-88
2023/04/13 08:11:12;;;;;;;18.70;9.18;;;11.50;99.90;;;;;;5079333;28;20193;-88
2023/04/13 08:13:38;;;;;;;18.17;9.15;;;;;;;;;;5064561;28;20179;-87
2023/04/13 08:16:05;;;;;;;21.70;9.13;;;11.80;99.90;;;;;;5102092;28;20166;-88
2023/04/13 08:18:36;;;;;;;20.13;8.63;;;12.10;99.90;;;;;;5085388;28;20166;-89
2023/04/13 08:21:10;;;;;;;18.50;8.77;;;12.20;99.90;;;;;;5084380;28;20198;-88
2023/04/13 08:23:41;;;;;;;20.90;10.73;;;10.10;99.90;;;;;;5080472;28;20320;-89
2023/04/13 08:26:08;;;;;;;20.92;10.10;;;12.20;99.90;;;;;;5094459;28;20147;-88
2023/04/13 08:28:39;;;;;;;21.73;10.85;;;12.40;99.90;;;;;;5093922;28;20206;-89
2023/04/13 08:31:06;;;;;;;20.63;10.02;;;12.70;99.90;;;;;;5079390;28;20175;-88
2023/04/13 08:33:32;;;;;;;19.27;9.98;;;12.80;99.90;;;;;;5059546;28;20587;-88
2023/04/13 08:35:58;;;;;;;20.55;10.43;;;12.80;99.90;;;;;;5063822;28;20193;-88
2023/04/13 08:38:23;;;;;;;18.08;9.50;;;11.00;99.90;;;;;;5116404;22;20248;-89
2023/04/13 08:40:50;;;;;;;17.90;9.13;;;;;;;;;;5036542;28;20211;-89
2023/04/13 08:43:19;;;;;;;18.60;10.27;;;12.50;99.90;;;;;;5035544;28;20184;-88
2023/04/13 08:45:45;;;;;;;21.45;10.95;;;13.50;99.90;;;;;;5018832;28;20179;-88
2023/04/13 08:48:13;;;;;;;20.23;9.70;;;12.90;99.90;;;;;;5021318;28;20178;-87
2023/04/13 08:50:38;;;;;;;18.92;9.73;;;12.90;99.90;;;;;;5035603;28;20187;-87
2023/04/13 08:53:06;;;;;;;20.38;9.77;;;13.10;99.90;;;;;;5006581;28;20713;-89
2023/04/13 08:55:31;;;;;;;19.98;10.43;;;13.30;99.90;;;;;;5019399;28;20172;-88
2023/04/13 08:57:59;;;;;;;20.23;8.85;;;12.90;99.90;;;;;;5019070;28;20184;-88
2023/04/13 09:00:26;;;;;;;19.60;10.32;;;14.10;99.90;;;;;;5002494;28;20204;-88
2023/04/13 09:03:00;;;;;;;19.00;9.40;;;12.70;99.90;;;;;;5003992;28;20212;-89
2023/04/13 09:05:27;;;;;;;19.35;9.32;;;12.60;99.90;;;;;;5019714;28;20176;-89
2023/04/13 09:07:55;;;;;;;22.58;10.45;;;12.90;99.90;;;;;;5019047;28;20185;-88
2023/04/13 09:10:22;;;;;;;16.65;9.10;;;12.00;99.90;;;;;;5037092;28;20234;-87
2023/04/13 09:12:51;;;;;;;18.35;8.93;;;12.60;99.90;;;;;;5036892;28;20176;-89
2023/04/13 09:15:16;;;;;;;15.95;8.02;;;12.90;99.90;;;;;;5002440;28;20287;-89
2023/04/13 09:17:42;;;;;;;17.40;8.80;;;12.90;99.90;;;;;;5018354;28;20646;-89
2023/04/13 09:20:22;;;;;;;16.48;8.27;;;13.00;99.90;;;;;;5017977;28;20208;-88
2023/04/13 09:22:50;;;;;;;17.60;8.27;;;13.30;99.90;;;;;;5019497;28;20187;-90
2023/04/13 09:25:27;;;;;;;12.93;7.28;;;13.60;99.90;;;;;;5017865;28;20638;-88
2023/04/13 09:27:53;;;;;;;18.02;8.40;;;14.10;99.90;;;;;;5017606;28;20187;-88
2023/04/13 09:30:25;;;;;;;14.32;7.93;;;16.20;99.90;;;;;;5001435;28;20373;-88
2023/04/13 09:33:09;;;;;;;15.02;7.43;;;14.30;99.90;;;;;;5035804;28;20176;-88
2023/04/13 09:35:35;;;;;;;18.17;9.30;;;15.00;99.90;;;;;;5034568;28;20201;-88
2023/04/13 09:38:01;;;;;;;15.82;8.77;;;14.70;99.90;;;;;;5035091;28;20319;-88
2023/04/13 09:40:28;;;;;;;15.20;7.32;;;15.00;99.90;;;;;;5034435;28;20212;-89
2023/04/13 09:42:57;;;;;;;16.92;8.55;;;15.00;99.90;;;;;;5035201;28;20195;-89
2023/04/13 09:45:31;;;;;;;16.98;7.95;;;15.10;99.90;;;;;;5033906;28;20264;-90
2023/04/13 09:48:01;;;;;;;16.60;8.25;;;15.30;98.60;;;;;;5035219;28;20180;-89
2023/04/13 09:50:27;;;;;;;14.98;7.40;;;15.30;99.90;;;;;;5035133;28;20263;-89
2023/04/13 09:53:03;;;;;;;17.17;8.15;;;15.40;97.90;;;;;;5036381;28;20206;-87
2023/04/13 09:55:31;;;;;;;17.52;9.00;;;15.60;99.40;;;;;;5037612;28;20291;-90
2023/04/13 09:58:15;;;;;;;15.50;8.63;;;15.80;99.90;;;;;;5037291;28;20206;-88
2023/04/13 10:00:47;;;;;;;18.60;8.52;;;15.70;97.00;;;;;;5034947;28;20196;-89
2023/04/13 10:03:15;;;;;;;15.13;8.25;;;16.70;99.30;;;;;;5035714;28;20649;-88
2023/04/13 10:05:42;;;;;;;17.67;9.15;;;15.90;97.20;;;;;;5021143;28;20179;-88
2023/04/13 10:08:09;;;;;;;15.57;8.15;;;16.00;98.80;;;;;;5040558;28;20211;-88
2023/04/13 10:10:36;;;;;;;13.68;7.13;;;16.00;97.60;;;;;;5039621;28;20640;-89
2023/04/13 10:13:26;;;;;;;14.13;7.63;;;16.20;97.80;;;;;;5038683;28;20188;-88
2023/04/13 10:16:08;;;;;;;14.40;8.27;;;16.00;96.70;;;;;;5037755;28;20645;-88
2023/04/13 10:18:58;;;;;;;17.40;8.98;;;16.10;96.90;;;;;;5036522;28;20187;-88
2023/04/13 10:21:34;;;;;;;17.92;9.32;;;16.30;99.40;;;;;;5037745;28;20238;-90
2023/04/13 10:24:08;;;;;;;16.83;8.32;;;16.40;97.10;;;;;;5022579;28;20219;-90
2023/04/13 10:26:38;;;;;;;16.73;8.65;;;16.60;96.10;;;;;;5018733;28;20185;-89
2023/04/13 10:29:07;;;;;;;17.58;8.90;;;16.80;96.10;;;;;;5027688;28;20169;-89
2023/04/13 10:32:01;;;;;;;15.57;8.30;;;16.50;94.60;;;;;;5025147;28;20938;-89
2023/04/13 10:34:33;;;;;;;18.60;8.93;;;16.50;93.70;;;;;;5017633;28;20610;-87
2023/04/13 10:37:02;;;;;;;17.17;8.45;;;15.80;92.10;;;;;;5016513;28;20176;-87
2023/04/13 10:39:33;;;;;;;17.75;7.97;;;15.80;97.70;;;;;;5016921;28;20245;-90
2023/04/13 10:42:05;;;;;;;14.77;8.15;;;16.20;96.50;;;;;;4999483;28;20697;-84
2023/04/13 10:44:50;;;;;;;17.15;7.50;;;16.80;97.10;;;;;;5017055;28;20248;-88
2023/04/13 10:47:19;;;;;;;16.52;8.50;;;17.00;94.30;;;;;;5017246;28;20176;-88
2023/04/13 10:49:48;;;;;;;13.88;7.70;;;17.20;92.10;;;;;;5002061;28;20178;-89
2023/04/13 10:52:15;;;;;;;11.82;7.00;;;15.30;92.40;;;;;;5017805;28;20177;-89
2023/04/13 10:54:43;;;;;;;12.77;7.07;;;17.30;91.40;;;;;;4967616;28;20273;-90
2023/04/13 10:57:10;;;;;;;15.82;6.95;;;17.40;90.70;;;;;;5018034;28;20181;-89
2023/04/13 10:59:42;;;;;;;13.75;7.65;;;16.80;86.90;;;;;;5017136;28;20173;-90
2023/04/13 11:02:10;;;;;;;7.45;4.72;;;16.00;85.80;;;;;;5019155;28;20169;-90
2023/04/13 11:04:42;;;;;;;10.00;5.55;;;16.20;80.80;;;;;;5000774;28;20173;-90
2023/04/13 11:07:22;;;;;;;12.02;6.03;;;16.10;83.80;;;;;;4999621;28;20228;-90
2023/04/13 11:09:51;;;;;;;11.80;5.55;;;16.30;83.30;;;;;;5001458;28;20272;-89
2023/04/13 11:12:18;;;;;;;13.70;6.18;;;16.40;84.70;;;;;;5000097;28;20181;-89
2023/04/13 11:14:49;;;;;;;9.25;5.22;;;16.70;90.70;;;;;;4999401;28;20532;-90
2023/04/13 11:17:17;;;;;;;14.90;6.38;;;17.30;82.40;;;;;;5017567;28;20597;-90
2023/04/13 11:19:48;;;;;;;13.00;6.43;;;17.30;85.70;;;;;;4998992;28;20958;-89
2023/04/13 11:22:17;;;;;;;10.35;5.30;;;17.10;88.60;;;;;;4999255;28;20192;-90
2023/04/13 11:24:43;;;;;;;9.52;5.70;;;17.10;80.70;;;;;;4999599;28;20176;-90
2023/04/13 11:27:23;;;;;;;11.07;5.53;;;16.60;77.50;;;;;;4999486;28;20264;-89
2023/04/13 11:30:04;;;;;;;10.40;4.85;;;18.20;81.80;;;;;;4999513;28;20702;-89
2023/04/13 11:32:34;;;;;;;9.55;4.55;;;16.60;74.10;;;;;;4999158;28;20185;-91
2023/04/13 11:35:09;;;;;;;11.73;5.70;;;17.10;80.10;;;;;;4998957;28;20260;-89
2023/04/13 11:37:41;;;;;;;13.70;7.20;;;17.20;81.80;;;;;;5006567;28;20270;-90
2023/04/13 11:40:13;;;;;;;8.90;5.05;;;17.10;86.60;;;;;;5004848;28;20208;-90
2023/04/13 11:42:45;;;;;;;10.65;5.38;;;17.30;79.40;;;;;;5038510;28;20222;-91
2023/04/13 11:45:13;;;;;;;13.40;6.40;;;17.20;79.30;;;;;;5005144;28;20195;-91
2023/04/13 11:47:40;;;;;;;10.00;6.15;;;17.10;82.50;;;;;;5020660;28;20189;-91
2023/04/13 11:50:06;;;;;;;8.93;5.57;;;17.60;87.10;;;;;;5021911;28;20656;-93
2023/04/13 11:52:34;;;;;;;8.93;5.18;;;17.50;80.20;;;;;;5019658;28;20191;-91
2023/04/13 11:55:05;;;;;;;11.00;5.70;;;17.30;79.90;;;;;;5019568;28;20243;-92
2023/04/13 11:57:34;;;;;;;9.75;5.32;;;17.20;82.80;;;;;;5020966;28;20189;-90
2023/04/13 12:00:00;;;;;;;6.82;3.58;;;19.70;85.20;;;;;;5021111;28;20204;-90
2023/04/13 12:02:27;;;;;;;6.03;3.75;;;17.50;65.20;;;;;;5003524;28;20199;-90
2023/04/13 12:04:54;;;;;;;7.05;3.88;;;17.20;68.00;;;;;;5020016;28;20259;-91
2023/04/13 12:07:20;;;;;;;4.93;3.25;;;17.10;62.90;;;;;;5019678;28;20625;-91
2023/04/13 12:09:47;;;;;;;5.18;3.28;;;17.00;66.00;;;;;;5020626;28;20176;-91
2023/04/13 12:12:23;;;;;;;8.65;3.08;;;17.20;66.10;;;;;;5020568;28;20173;-90
2023/04/13 12:15:11;;;;;;;3.55;2.90;;;17.30;65.10;;;;;;5019621;28;20184;-89
2023/04/13 12:17:37;;;;;;;6.63;3.20;;;17.60;61.00;;;;;;5021824;28;20241;-91
2023/04/13 12:20:03;;;;;;;4.60;2.97;;;17.50;60.10;;;;;;5003686;28;20200;-89
2023/04/13 12:22:40;;;;;;;3.80;2.45;;;17.30;57.70;;;;;;5019750;28;20203;-90
2023/04/13 12:25:19;;;;;;;4.88;2.45;;;17.60;56.60;;;;;;5021749;28;20172;-89
2023/04/13 12:27:49;;;;;;;4.47;2.35;;;18.40;56.60;;;;;;5025301;28;20187;-90
2023/04/13 12:30:16;;;;;;;2.50;1.80;;;17.90;57.80;;;;;;5031472;28;20543;-91
2023/04/13 12:32:44;;;;;;;3.72;2.35;;;17.80;57.40;;;;;;5018878;28;20180;-91
2023/04/13 12:35:10;;;;;;;4.82;2.33;;;17.70;54.70;;;;;;5034650;28;20246;-90
2023/04/13 12:37:42;;;;;;;4.65;2.58;;;17.40;55.20;;;;;;5016627;28;20685;-90
2023/04/13 12:40:11;;;;;;;4.40;2.63;;;17.50;53.70;;;;;;5017926;28;20208;-89
2023/04/13 12:42:38;;;;;;;4.45;2.55;;;18.00;55.20;;;;;;5018140;28;20180;-89
2023/04/13 12:45:04;;;;;;;5.03;2.50;;;17.60;52.30;;;;;;5017338;28;20176;-89
2023/04/13 12:47:33;;;;;;;6.40;3.08;;;17.60;55.00;;;;;;5006156;28;20192;-90
2023/04/13 12:49:58;;;;;;;3.35;1.95;;;18.00;56.40;;;;;;5023267;28;20671;-91
2023/04/13 12:52:27;;;;;;;5.10;2.40;;;18.10;55.20;;;;;;5019058;28;20180;-90
2023/04/13 12:54:54;;;;;;;5.47;2.40;;;18.50;58.80;;;;;;5002407;28;20195;-90
2023/04/13 12:57:25;;;;;;;3.53;2.30;;;19.10;54.70;;;;;;5018665;28;20177;-90
2023/04/13 12:59:51;;;;;;;4.70;2.47;;;18.80;51.00;;;;;;5018097;28;20637;-90
2023/04/13 13:02:16;;;;;;;4.22;3.22;;;18.80;51.90;;;;;;5041878;28;20264;-90
2023/04/13 13:04:42;;;;;;;3.90;2.55;;;17.90;54.80;;;;;;5018276;28;20176;-90
2023/04/13 13:07:13;;;;;;;5.40;2.80;;;18.10;56.50;;;;;;5018418;28;20172;-91
2023/04/13 13:09:41;;;;;;;4.07;2.25;;;19.40;55.30;;;;;;5017572;28;20246;-91